sensor_id;sensor_type;location;lat;lon;timestamp;temperature;humidity
506;DHT22;551;48.524;9.056;2023-05-20T00:00:51;12.90;1.00
506;DHT22;551;48.524;9.056;2023-05-20T00:03:18;12.90;1.00
506;DHT22;551;48.524;9.056;2023-05-20T00:05:47;12.80;1.00
506;DHT22;551;48.524;9.056;2023-05-20T00:08:12;12.80;1.00
506;DHT22;551;48.524;9.056;2023-05-20T00:10:38;12.80;1.00
506;DHT22;551;48.524;9.056;2023-05-20T00:15:31;12.80;1.00
506;DHT22;551;48.524;9.056;2023-05-20T00:17:57;12.80;1.00
506;DHT22;551;48.524;9.056;2023-05-20T00:20:22;12.70;1.00
506;DHT22;551;48.524;9.056;2023-05-20T00:22:48;12.70;1.00
506;DHT22;551;48.524;9.056;2023-05-20T00:25:13;15.50;1.00
506;DHT22;551;48.524;9.056;2023-05-20T00:27:40;12.60;1.00
506;DHT22;551;48.524;9.056;2023-05-20T00:30:06;12.80;1.00
506;DHT22;551;48.524;9.056;2023-05-20T00:32:32;12.70;1.00
506;DHT22;551;48.524;9.056;2023-05-20T00:34:58;12.70;1.00
506;DHT22;551;48.524;9.056;2023-05-20T00:37:24;12.70;1.00
506;DHT22;551;48.524;9.056;2023-05-20T00:39:50;12.70;1.00
506;DHT22;551;48.524;9.056;2023-05-20T00:42:26;12.80;1.00
506;DHT22;551;48.524;9.056;2023-05-20T00:44:52;12.80;1.00
506;DHT22;551;48.524;9.056;2023-05-20T00:47:19;12.80;1.00
506;DHT22;551;48.524;9.056;2023-05-20T00:49:46;12.70;1.00
506;DHT22;551;48.524;9.056;2023-05-20T00:52:13;12.90;1.00
506;DHT22;551;48.524;9.056;2023-05-20T00:54:39;12.70;1.00
506;DHT22;551;48.524;9.056;2023-05-20T00:57:06;12.70;1.00
506;DHT22;551;48.524;9.056;2023-05-20T00:59:33;12.80;1.00
506;DHT22;551;48.524;9.056;2023-05-20T01:01:59;12.80;1.00
506;DHT22;551;48.524;9.056;2023-05-20T01:04:25;12.80;1.00
506;DHT22;551;48.524;9.056;2023-05-20T01:06:51;12.70;1.00
506;DHT22;551;48.524;9.056;2023-05-20T01:09:17;12.70;1.00
506;DHT22;551;48.524;9.056;2023-05-20T01:11:48;12.80;1.00
506;DHT22;551;48.524;9.056;2023-05-20T01:14:17;12.80;1.00
506;DHT22;551;48.524;9.056;2023-05-20T01:16:44;12.70;1.00
506;DHT22;551;48.524;9.056;2023-05-20T01:19:26;12.70;1.00
506;DHT22;551;48.524;9.056;2023-05-20T01:21:55;12.70;1.00
506;DHT22;551;48.524;9.056;2023-05-20T01:24:21;12.60;1.00
506;DHT22;551;48.524;9.056;2023-05-20T01:26:47;12.70;1.00
506;DHT22;551;48.524;9.056;2023-05-20T01:29:14;12.70;1.00
506;DHT22;551;48.524;9.056;2023-05-20T01:31:42;12.50;1.00
506;DHT22;551;48.524;9.056;2023-05-20T01:34:08;12.70;1.00
506;DHT22;551;48.524;9.056;2023-05-20T01:36:34;12.70;1.00
506;DHT22;551;48.524;9.056;2023-05-20T01:39:01;12.70;1.00
506;DHT22;551;48.524;9.056;2023-05-20T01:41:28;12.70;1.00
506;DHT22;551;48.524;9.056;2023-05-20T01:43:54;12.40;1.00
506;DHT22;551;48.524;9.056;2023-05-20T01:46:20;12.60;1.00
506;DHT22;551;48.524;9.056;2023-05-20T01:48:46;12.70;1.00
506;DHT22;551;48.524;9.056;2023-05-20T01:51:11;12.70;1.00
506;DHT22;551;48.524;9.056;2023-05-20T01:53:37;12.70;1.00
506;DHT22;551;48.524;9.056;2023-05-20T01:56:04;12.70;1.00
506;DHT22;551;48.524;9.056;2023-05-20T01:58:30;12.70;1.00
506;DHT22;551;48.524;9.056;2023-05-20T02:00:55;12.70;1.00
506;DHT22;551;48.524;9.056;2023-05-20T02:03:21;12.80;1.00
506;DHT22;551;48.524;9.056;2023-05-20T02:05:46;12.80;1.00
506;DHT22;551;48.524;9.056;2023-05-20T02:08:12;12.70;1.00
506;DHT22;551;48.524;9.056;2023-05-20T02:10:37;12.80;1.00
506;DHT22;551;48.524;9.056;2023-05-20T02:13:03;12.80;1.00
506;DHT22;551;48.524;9.056;2023-05-20T02:15:28;12.70;1.00
506;DHT22;551;48.524;9.056;2023-05-20T02:17:54;12.70;1.00
506;DHT22;551;48.524;9.056;2023-05-20T02:20:22;12.70;1.00
506;DHT22;551;48.524;9.056;2023-05-20T02:22:47;12.70;1.00
506;DHT22;551;48.524;9.056;2023-05-20T02:25:13;12.70;1.00
506;DHT22;551;48.524;9.056;2023-05-20T02:27:38;12.60;1.00
506;DHT22;551;48.524;9.056;2023-05-20T02:30:05;12.60;1.00
506;DHT22;551;48.524;9.056;2023-05-20T02:32:31;12.60;1.00
506;DHT22;551;48.524;9.056;2023-05-20T02:34:57;12.60;1.00
506;DHT22;551;48.524;9.056;2023-05-20T02:37:23;12.60;1.00
506;DHT22;551;48.524;9.056;2023-05-20T02:39:48;12.60;1.00
506;DHT22;551;48.524;9.056;2023-05-20T02:42:14;12.50;1.00
506;DHT22;551;48.524;9.056;2023-05-20T02:44:40;12.50;1.00
506;DHT22;551;48.524;9.056;2023-05-20T02:47:06;12.50;1.00
506;DHT22;551;48.524;9.056;2023-05-20T02:49:31;12.50;1.00
506;DHT22;551;48.524;9.056;2023-05-20T02:51:57;12.50;1.00
506;DHT22;551;48.524;9.056;2023-05-20T02:54:22;12.50;1.00
506;DHT22;551;48.524;9.056;2023-05-20T03:01:40;12.40;1.00
506;DHT22;551;48.524;9.056;2023-05-20T03:06:31;12.30;1.00
506;DHT22;551;48.524;9.056;2023-05-20T03:08:57;12.30;1.00
506;DHT22;551;48.524;9.056;2023-05-20T03:11:23;12.20;1.00
506;DHT22;551;48.524;9.056;2023-05-20T03:13:49;12.10;1.00
506;DHT22;551;48.524;9.056;2023-05-20T03:16:14;12.00;1.00
506;DHT22;551;48.524;9.056;2023-05-20T03:18:41;12.00;1.00
506;DHT22;551;48.524;9.056;2023-05-20T03:21:07;12.00;1.00
506;DHT22;551;48.524;9.056;2023-05-20T03:23:32;12.00;1.00
506;DHT22;551;48.524;9.056;2023-05-20T03:25:58;12.00;1.00
506;DHT22;551;48.524;9.056;2023-05-20T03:28:23;12.00;1.00
506;DHT22;551;48.524;9.056;2023-05-20T03:30:49;12.10;1.00
506;DHT22;551;48.524;9.056;2023-05-20T03:33:14;12.10;1.00
506;DHT22;551;48.524;9.056;2023-05-20T03:35:40;12.10;1.00
506;DHT22;551;48.524;9.056;2023-05-20T03:38:06;12.20;1.00
506;DHT22;551;48.524;9.056;2023-05-20T03:40:31;12.30;1.00
506;DHT22;551;48.524;9.056;2023-05-20T03:42:57;12.30;1.00
506;DHT22;551;48.524;9.056;2023-05-20T03:45:22;12.40;1.00
506;DHT22;551;48.524;9.056;2023-05-20T03:47:48;12.50;1.00
506;DHT22;551;48.524;9.056;2023-05-20T03:50:13;12.50;1.00
506;DHT22;551;48.524;9.056;2023-05-20T03:52:39;12.50;1.00
506;DHT22;551;48.524;9.056;2023-05-20T03:55:05;12.50;1.00
506;DHT22;551;48.524;9.056;2023-05-20T03:57:31;12.50;1.00
506;DHT22;551;48.524;9.056;2023-05-20T04:02:22;12.60;1.00
506;DHT22;551;48.524;9.056;2023-05-20T04:04:48;12.60;1.00
506;DHT22;551;48.524;9.056;2023-05-20T04:07:17;12.40;1.00
506;DHT22;551;48.524;9.056;2023-05-20T04:09:42;12.60;1.00
506;DHT22;551;48.524;9.056;2023-05-20T04:12:08;12.70;1.00
506;DHT22;551;48.524;9.056;2023-05-20T04:14:33;12.70;1.00
506;DHT22;551;48.524;9.056;2023-05-20T04:17:02;12.70;1.00
506;DHT22;551;48.524;9.056;2023-05-20T04:19:29;12.80;1.00
506;DHT22;551;48.524;9.056;2023-05-20T04:21:55;12.80;1.00
506;DHT22;551;48.524;9.056;2023-05-20T04:24:21;12.90;1.00
506;DHT22;551;48.524;9.056;2023-05-20T04:26:50;13.00;1.00
506;DHT22;551;48.524;9.056;2023-05-20T04:29:16;13.00;1.00
506;DHT22;551;48.524;9.056;2023-05-20T04:31:44;13.10;1.00
506;DHT22;551;48.524;9.056;2023-05-20T04:34:10;13.20;1.00
506;DHT22;551;48.524;9.056;2023-05-20T04:39:02;13.50;1.00
506;DHT22;551;48.524;9.056;2023-05-20T04:41:29;13.60;1.00
506;DHT22;551;48.524;9.056;2023-05-20T04:43:55;13.50;1.00
506;DHT22;551;48.524;9.056;2023-05-20T04:46:25;13.70;1.00
506;DHT22;551;48.524;9.056;2023-05-20T04:48:51;13.80;1.00
506;DHT22;551;48.524;9.056;2023-05-20T04:51:16;13.80;1.00
506;DHT22;551;48.524;9.056;2023-05-20T04:53:42;13.90;1.00
506;DHT22;551;48.524;9.056;2023-05-20T04:56:09;13.80;1.00
506;DHT22;551;48.524;9.056;2023-05-20T04:58:35;13.80;1.00
506;DHT22;551;48.524;9.056;2023-05-20T05:01:01;13.80;1.00
506;DHT22;551;48.524;9.056;2023-05-20T05:03:26;13.90;1.00
506;DHT22;551;48.524;9.056;2023-05-20T05:05:55;13.90;1.00
506;DHT22;551;48.524;9.056;2023-05-20T05:08:21;13.90;1.00
506;DHT22;551;48.524;9.056;2023-05-20T05:10:46;13.90;1.00
506;DHT22;551;48.524;9.056;2023-05-20T05:13:12;13.90;1.00
506;DHT22;551;48.524;9.056;2023-05-20T05:15:37;13.90;1.00
506;DHT22;551;48.524;9.056;2023-05-20T05:18:03;14.00;1.00
506;DHT22;551;48.524;9.056;2023-05-20T05:20:28;14.00;1.00
506;DHT22;551;48.524;9.056;2023-05-20T05:22:54;14.00;1.00
506;DHT22;551;48.524;9.056;2023-05-20T05:25:19;14.10;1.00
506;DHT22;551;48.524;9.056;2023-05-20T05:27:45;14.10;1.00
506;DHT22;551;48.524;9.056;2023-05-20T05:30:13;14.10;1.00
506;DHT22;551;48.524;9.056;2023-05-20T05:32:39;14.20;1.00
506;DHT22;551;48.524;9.056;2023-05-20T05:35:04;14.30;1.00
506;DHT22;551;48.524;9.056;2023-05-20T05:37:30;14.30;1.00
506;DHT22;551;48.524;9.056;2023-05-20T05:39:55;14.30;1.00
506;DHT22;551;48.524;9.056;2023-05-20T05:42:21;14.40;1.00
506;DHT22;551;48.524;9.056;2023-05-20T05:44:47;14.50;1.00
506;DHT22;551;48.524;9.056;2023-05-20T05:47:13;14.60;1.00
506;DHT22;551;48.524;9.056;2023-05-20T05:49:38;14.70;1.00
506;DHT22;551;48.524;9.056;2023-05-20T05:52:04;14.80;1.00
506;DHT22;551;48.524;9.056;2023-05-20T05:54:29;14.80;1.00
506;DHT22;551;48.524;9.056;2023-05-20T05:56:55;14.70;1.00
506;DHT22;551;48.524;9.056;2023-05-20T05:59:21;14.80;1.00
506;DHT22;551;48.524;9.056;2023-05-20T06:01:46;14.80;1.00
506;DHT22;551;48.524;9.056;2023-05-20T06:04:12;14.90;1.00
506;DHT22;551;48.524;9.056;2023-05-20T06:06:37;14.90;1.00
506;DHT22;551;48.524;9.056;2023-05-20T06:09:03;15.00;1.00
506;DHT22;551;48.524;9.056;2023-05-20T06:11:29;15.10;1.00
506;DHT22;551;48.524;9.056;2023-05-20T06:13:54;15.20;1.00
506;DHT22;551;48.524;9.056;2023-05-20T06:16:20;15.30;1.00
506;DHT22;551;48.524;9.056;2023-05-20T06:18:46;15.40;1.00
506;DHT22;551;48.524;9.056;2023-05-20T06:21:11;15.60;1.00
506;DHT22;551;48.524;9.056;2023-05-20T06:23:37;15.70;1.00
506;DHT22;551;48.524;9.056;2023-05-20T06:26:03;15.90;1.00
506;DHT22;551;48.524;9.056;2023-05-20T06:28:29;16.10;1.00
506;DHT22;551;48.524;9.056;2023-05-20T06:30:55;16.20;1.00
506;DHT22;551;48.524;9.056;2023-05-20T06:33:24;16.40;1.00
506;DHT22;551;48.524;9.056;2023-05-20T06:35:54;16.70;1.00
506;DHT22;551;48.524;9.056;2023-05-20T06:38:20;17.00;1.00
506;DHT22;551;48.524;9.056;2023-05-20T06:40:46;17.40;1.00
506;DHT22;551;48.524;9.056;2023-05-20T06:43:13;17.30;1.00
506;DHT22;551;48.524;9.056;2023-05-20T06:45:38;17.50;1.00
506;DHT22;551;48.524;9.056;2023-05-20T06:48:04;17.60;1.00
506;DHT22;551;48.524;9.056;2023-05-20T06:50:30;17.80;1.00
506;DHT22;551;48.524;9.056;2023-05-20T06:52:55;18.00;1.00
506;DHT22;551;48.524;9.056;2023-05-20T06:57:47;18.20;1.00
506;DHT22;551;48.524;9.056;2023-05-20T07:00:12;18.50;1.00
506;DHT22;551;48.524;9.056;2023-05-20T07:02:38;18.80;1.00
506;DHT22;551;48.524;9.056;2023-05-20T07:05:04;19.10;1.00
506;DHT22;551;48.524;9.056;2023-05-20T07:09:56;19.90;1.00
506;DHT22;551;48.524;9.056;2023-05-20T07:12:22;20.10;1.00
506;DHT22;551;48.524;9.056;2023-05-20T07:14:47;20.40;1.00
506;DHT22;551;48.524;9.056;2023-05-20T07:17:13;20.90;1.00
506;DHT22;551;48.524;9.056;2023-05-20T07:19:38;21.20;1.00
506;DHT22;551;48.524;9.056;2023-05-20T07:22:04;21.40;1.00
506;DHT22;551;48.524;9.056;2023-05-20T07:24:29;21.30;1.00
506;DHT22;551;48.524;9.056;2023-05-20T07:26:55;21.10;1.00
506;DHT22;551;48.524;9.056;2023-05-20T07:29:21;20.90;1.00
506;DHT22;551;48.524;9.056;2023-05-20T07:31:46;20.90;1.00
506;DHT22;551;48.524;9.056;2023-05-20T07:34:11;21.20;1.00
506;DHT22;551;48.524;9.056;2023-05-20T07:36:37;22.20;1.00
506;DHT22;551;48.524;9.056;2023-05-20T07:39:03;24.30;1.00
506;DHT22;551;48.524;9.056;2023-05-20T07:41:28;27.00;1.00
506;DHT22;551;48.524;9.056;2023-05-20T07:43:54;28.90;1.00
506;DHT22;551;48.524;9.056;2023-05-20T07:46:19;30.30;1.00
506;DHT22;551;48.524;9.056;2023-05-20T07:48:45;31.50;1.00
506;DHT22;551;48.524;9.056;2023-05-20T07:51:11;31.40;1.00
506;DHT22;551;48.524;9.056;2023-05-20T07:53:36;30.80;1.00
506;DHT22;551;48.524;9.056;2023-05-20T07:56:02;29.50;1.00
506;DHT22;551;48.524;9.056;2023-05-20T07:58:28;28.40;1.00
506;DHT22;551;48.524;9.056;2023-05-20T08:00:53;27.80;1.00
506;DHT22;551;48.524;9.056;2023-05-20T08:03:19;27.80;1.00
506;DHT22;551;48.524;9.056;2023-05-20T08:05:46;27.60;1.00
506;DHT22;551;48.524;9.056;2023-05-20T08:08:12;27.20;1.00
506;DHT22;551;48.524;9.056;2023-05-20T08:10:37;26.50;1.00
506;DHT22;551;48.524;9.056;2023-05-20T08:13:03;26.20;1.00
506;DHT22;551;48.524;9.056;2023-05-20T08:15:29;25.40;1.00
506;DHT22;551;48.524;9.056;2023-05-20T08:17:54;25.20;1.00
506;DHT22;551;48.524;9.056;2023-05-20T08:20:20;24.90;1.00
506;DHT22;551;48.524;9.056;2023-05-20T08:25:12;23.90;1.00
506;DHT22;551;48.524;9.056;2023-05-20T08:27:37;23.60;1.00
506;DHT22;551;48.524;9.056;2023-05-20T08:30:04;23.30;1.00
506;DHT22;551;48.524;9.056;2023-05-20T08:32:29;23.40;1.00
506;DHT22;551;48.524;9.056;2023-05-20T08:34:55;24.00;1.00
506;DHT22;551;48.524;9.056;2023-05-20T08:37:21;25.20;1.00
506;DHT22;551;48.524;9.056;2023-05-20T08:39:47;25.30;1.00
506;DHT22;551;48.524;9.056;2023-05-20T08:42:14;25.40;1.00
506;DHT22;551;48.524;9.056;2023-05-20T08:44:41;25.30;1.00
506;DHT22;551;48.524;9.056;2023-05-20T08:47:07;25.30;1.00
506;DHT22;551;48.524;9.056;2023-05-20T08:49:33;25.50;1.00
506;DHT22;551;48.524;9.056;2023-05-20T08:51:59;25.60;1.00
506;DHT22;551;48.524;9.056;2023-05-20T08:57:08;25.40;1.00
506;DHT22;551;48.524;9.056;2023-05-20T08:59:34;25.30;1.00
506;DHT22;551;48.524;9.056;2023-05-20T09:02:00;25.00;1.00
506;DHT22;551;48.524;9.056;2023-05-20T09:04:26;25.40;1.00
506;DHT22;551;48.524;9.056;2023-05-20T09:06:52;25.50;1.00
506;DHT22;551;48.524;9.056;2023-05-20T09:09:18;25.30;1.00
506;DHT22;551;48.524;9.056;2023-05-20T09:11:43;25.60;1.00
506;DHT22;551;48.524;9.056;2023-05-20T09:14:09;26.90;1.00
506;DHT22;551;48.524;9.056;2023-05-20T09:16:34;27.50;1.00
506;DHT22;551;48.524;9.056;2023-05-20T09:19:00;29.30;1.00
506;DHT22;551;48.524;9.056;2023-05-20T09:21:28;27.70;1.00
506;DHT22;551;48.524;9.056;2023-05-20T09:23:55;27.10;1.00
506;DHT22;551;48.524;9.056;2023-05-20T09:26:26;26.70;1.00
506;DHT22;551;48.524;9.056;2023-05-20T09:28:55;26.20;1.00
506;DHT22;551;48.524;9.056;2023-05-20T09:31:20;26.70;1.00
506;DHT22;551;48.524;9.056;2023-05-20T09:33:50;27.10;1.00
506;DHT22;551;48.524;9.056;2023-05-20T09:36:16;27.40;1.00
506;DHT22;551;48.524;9.056;2023-05-20T09:38:45;27.50;1.00
506;DHT22;551;48.524;9.056;2023-05-20T09:41:12;27.00;1.00
506;DHT22;551;48.524;9.056;2023-05-20T09:43:39;27.60;1.00
506;DHT22;551;48.524;9.056;2023-05-20T09:46:06;29.00;1.00
506;DHT22;551;48.524;9.056;2023-05-20T09:48:34;31.90;1.00
506;DHT22;551;48.524;9.056;2023-05-20T09:51:04;31.90;1.00
506;DHT22;551;48.524;9.056;2023-05-20T09:53:30;33.60;1.00
506;DHT22;551;48.524;9.056;2023-05-20T09:55:55;34.20;1.00
506;DHT22;551;48.524;9.056;2023-05-20T09:58:22;34.70;1.00
506;DHT22;551;48.524;9.056;2023-05-20T10:00:47;35.40;1.00
506;DHT22;551;48.524;9.056;2023-05-20T10:03:13;35.50;1.00
506;DHT22;551;48.524;9.056;2023-05-20T10:05:57;34.30;1.00
506;DHT22;551;48.524;9.056;2023-05-20T10:08:51;33.70;1.00
506;DHT22;551;48.524;9.056;2023-05-20T10:17:05;34.70;1.00
506;DHT22;551;48.524;9.056;2023-05-20T10:19:34;34.40;1.00
506;DHT22;551;48.524;9.056;2023-05-20T10:22:02;34.50;1.00
506;DHT22;551;48.524;9.056;2023-05-20T10:24:31;35.10;1.00
506;DHT22;551;48.524;9.056;2023-05-20T10:26:59;35.40;1.00
506;DHT22;551;48.524;9.056;2023-05-20T10:29:25;35.80;1.00
506;DHT22;551;48.524;9.056;2023-05-20T10:31:52;35.70;1.00
506;DHT22;551;48.524;9.056;2023-05-20T10:34:19;35.10;1.00
506;DHT22;551;48.524;9.056;2023-05-20T10:36:46;35.00;1.00
506;DHT22;551;48.524;9.056;2023-05-20T10:39:15;35.30;1.00
506;DHT22;551;48.524;9.056;2023-05-20T10:41:42;35.00;1.00
506;DHT22;551;48.524;9.056;2023-05-20T10:44:07;34.30;1.00
506;DHT22;551;48.524;9.056;2023-05-20T10:46:33;35.00;1.00
506;DHT22;551;48.524;9.056;2023-05-20T10:49:01;35.10;1.00
506;DHT22;551;48.524;9.056;2023-05-20T10:51:28;35.40;1.00
506;DHT22;551;48.524;9.056;2023-05-20T10:53:56;35.00;1.00
506;DHT22;551;48.524;9.056;2023-05-20T10:56:23;34.60;1.00
506;DHT22;551;48.524;9.056;2023-05-20T10:58:50;34.50;1.00
506;DHT22;551;48.524;9.056;2023-05-20T11:01:16;34.70;1.00
506;DHT22;551;48.524;9.056;2023-05-20T11:03:46;34.20;1.00
506;DHT22;551;48.524;9.056;2023-05-20T11:06:14;34.60;1.00
506;DHT22;551;48.524;9.056;2023-05-20T11:08:40;35.80;1.00
506;DHT22;551;48.524;9.056;2023-05-20T11:11:06;35.30;1.00
506;DHT22;551;48.524;9.056;2023-05-20T11:13:32;35.60;1.00
506;DHT22;551;48.524;9.056;2023-05-20T11:15:57;36.00;1.00
506;DHT22;551;48.524;9.056;2023-05-20T11:18:26;34.90;1.00
506;DHT22;551;48.524;9.056;2023-05-20T11:20:55;34.30;1.00
506;DHT22;551;48.524;9.056;2023-05-20T11:23:20;33.40;1.00
506;DHT22;551;48.524;9.056;2023-05-20T11:25:49;33.10;1.00
506;DHT22;551;48.524;9.056;2023-05-20T11:28:17;33.00;1.00
506;DHT22;551;48.524;9.056;2023-05-20T11:30:43;31.70;1.00
506;DHT22;551;48.524;9.056;2023-05-20T11:33:12;31.00;1.00
506;DHT22;551;48.524;9.056;2023-05-20T11:35:50;30.60;1.00
506;DHT22;551;48.524;9.056;2023-05-20T11:38:16;29.90;1.00
506;DHT22;551;48.524;9.056;2023-05-20T11:40:44;29.60;1.00
506;DHT22;551;48.524;9.056;2023-05-20T11:43:13;30.10;1.00
506;DHT22;551;48.524;9.056;2023-05-20T11:45:43;31.10;1.00
506;DHT22;551;48.524;9.056;2023-05-20T11:48:10;31.70;1.00
506;DHT22;551;48.524;9.056;2023-05-20T11:50:41;32.20;1.00
506;DHT22;551;48.524;9.056;2023-05-20T11:53:08;32.60;1.00
506;DHT22;551;48.524;9.056;2023-05-20T11:55:47;33.50;1.00
506;DHT22;551;48.524;9.056;2023-05-20T11:58:21;33.30;1.00
506;DHT22;551;48.524;9.056;2023-05-20T12:00:47;33.30;1.00
506;DHT22;551;48.524;9.056;2023-05-20T12:03:13;33.10;1.00
506;DHT22;551;48.524;9.056;2023-05-20T12:05:40;32.70;1.00
506;DHT22;551;48.524;9.056;2023-05-20T12:08:05;32.40;1.00
506;DHT22;551;48.524;9.056;2023-05-20T12:10:31;32.20;1.00
506;DHT22;551;48.524;9.056;2023-05-20T12:12:57;31.10;1.00
506;DHT22;551;48.524;9.056;2023-05-20T12:15:23;31.30;1.00
506;DHT22;551;48.524;9.056;2023-05-20T12:17:50;30.50;1.00
506;DHT22;551;48.524;9.056;2023-05-20T12:20:19;29.90;1.00
506;DHT22;551;48.524;9.056;2023-05-20T12:22:45;29.30;1.00
506;DHT22;551;48.524;9.056;2023-05-20T12:25:15;29.20;1.00
506;DHT22;551;48.524;9.056;2023-05-20T12:27:42;29.20;1.00
506;DHT22;551;48.524;9.056;2023-05-20T12:30:08;29.00;1.00
506;DHT22;551;48.524;9.056;2023-05-20T12:32:37;28.80;1.00
506;DHT22;551;48.524;9.056;2023-05-20T12:35:03;28.50;1.00
506;DHT22;551;48.524;9.056;2023-05-20T12:37:31;28.10;1.00
506;DHT22;551;48.524;9.056;2023-05-20T12:39:56;27.80;1.00
506;DHT22;551;48.524;9.056;2023-05-20T12:42:22;28.10;1.00
506;DHT22;551;48.524;9.056;2023-05-20T12:44:47;28.00;1.00
506;DHT22;551;48.524;9.056;2023-05-20T12:47:13;27.50;1.00
506;DHT22;551;48.524;9.056;2023-05-20T12:49:39;27.70;1.00
506;DHT22;551;48.524;9.056;2023-05-20T12:52:04;27.70;1.00
506;DHT22;551;48.524;9.056;2023-05-20T12:54:30;27.70;1.00
506;DHT22;551;48.524;9.056;2023-05-20T12:56:57;28.40;1.00
506;DHT22;551;48.524;9.056;2023-05-20T12:59:22;28.00;1.00
506;DHT22;551;48.524;9.056;2023-05-20T13:01:48;27.50;1.00
506;DHT22;551;48.524;9.056;2023-05-20T13:04:13;27.60;1.00
506;DHT22;551;48.524;9.056;2023-05-20T13:06:39;27.80;1.00
506;DHT22;551;48.524;9.056;2023-05-20T13:09:06;28.00;1.00
506;DHT22;551;48.524;9.056;2023-05-20T13:11:32;27.90;1.00
506;DHT22;551;48.524;9.056;2023-05-20T13:13:57;27.70;1.00
506;DHT22;551;48.524;9.056;2023-05-20T13:16:23;27.90;1.00
506;DHT22;551;48.524;9.056;2023-05-20T13:18:49;28.30;1.00
506;DHT22;551;48.524;9.056;2023-05-20T13:21:15;28.40;1.00
506;DHT22;551;48.524;9.056;2023-05-20T13:23:41;28.30;1.00
506;DHT22;551;48.524;9.056;2023-05-20T13:26:07;28.00;1.00
506;DHT22;551;48.524;9.056;2023-05-20T13:28:33;27.90;1.00
506;DHT22;551;48.524;9.056;2023-05-20T13:31:00;27.90;1.00
506;DHT22;551;48.524;9.056;2023-05-20T13:33:25;28.20;1.00
506;DHT22;551;48.524;9.056;2023-05-20T13:35:51;27.40;1.00
506;DHT22;551;48.524;9.056;2023-05-20T13:38:16;27.50;1.00
506;DHT22;551;48.524;9.056;2023-05-20T13:40:42;27.40;1.00
506;DHT22;551;48.524;9.056;2023-05-20T13:43:08;27.10;1.00
506;DHT22;551;48.524;9.056;2023-05-20T13:45:33;27.20;1.00
506;DHT22;551;48.524;9.056;2023-05-20T13:47:58;27.30;1.00
506;DHT22;551;48.524;9.056;2023-05-20T13:50:25;26.70;1.00
506;DHT22;551;48.524;9.056;2023-05-20T13:52:50;26.80;1.00
506;DHT22;551;48.524;9.056;2023-05-20T13:55:16;26.30;1.00
506;DHT22;551;48.524;9.056;2023-05-20T13:57:41;26.90;1.00
506;DHT22;551;48.524;9.056;2023-05-20T14:00:07;26.30;1.00
506;DHT22;551;48.524;9.056;2023-05-20T14:02:34;26.40;1.00
506;DHT22;551;48.524;9.056;2023-05-20T14:05:00;26.40;1.00
506;DHT22;551;48.524;9.056;2023-05-20T14:07:25;26.50;1.00
506;DHT22;551;48.524;9.056;2023-05-20T14:09:51;26.50;1.00
506;DHT22;551;48.524;9.056;2023-05-20T14:12:16;26.60;1.00
506;DHT22;551;48.524;9.056;2023-05-20T14:14:42;26.80;1.00
506;DHT22;551;48.524;9.056;2023-05-20T14:17:07;26.80;1.00
506;DHT22;551;48.524;9.056;2023-05-20T14:19:33;26.80;1.00
506;DHT22;551;48.524;9.056;2023-05-20T14:21:58;26.60;1.00
506;DHT22;551;48.524;9.056;2023-05-20T14:24:25;26.60;1.00
506;DHT22;551;48.524;9.056;2023-05-20T14:26:51;26.50;1.00
506;DHT22;551;48.524;9.056;2023-05-20T14:29:17;26.00;1.00
506;DHT22;551;48.524;9.056;2023-05-20T14:31:43;26.30;1.00
506;DHT22;551;48.524;9.056;2023-05-20T14:34:09;26.40;1.00
506;DHT22;551;48.524;9.056;2023-05-20T14:36:34;26.40;1.00
506;DHT22;551;48.524;9.056;2023-05-20T14:39:00;26.30;1.00
506;DHT22;551;48.524;9.056;2023-05-20T14:41:26;26.30;1.00
506;DHT22;551;48.524;9.056;2023-05-20T14:43:51;26.30;1.00
506;DHT22;551;48.524;9.056;2023-05-20T14:46:17;26.20;1.00
506;DHT22;551;48.524;9.056;2023-05-20T14:48:42;26.20;1.00
506;DHT22;551;48.524;9.056;2023-05-20T14:51:08;26.10;1.00
506;DHT22;551;48.524;9.056;2023-05-20T14:53:33;26.00;1.00
506;DHT22;551;48.524;9.056;2023-05-20T14:55:59;25.90;1.00
506;DHT22;551;48.524;9.056;2023-05-20T14:58:25;25.90;1.00
506;DHT22;551;48.524;9.056;2023-05-20T15:00:52;25.90;1.00
506;DHT22;551;48.524;9.056;2023-05-20T15:03:17;25.80;1.00
506;DHT22;551;48.524;9.056;2023-05-20T15:05:43;26.40;1.00
506;DHT22;551;48.524;9.056;2023-05-20T15:08:08;25.60;1.00
506;DHT22;551;48.524;9.056;2023-05-20T15:10:34;25.60;1.00
506;DHT22;551;48.524;9.056;2023-05-20T15:13:00;25.50;1.00
506;DHT22;551;48.524;9.056;2023-05-20T15:15:25;25.40;1.00
506;DHT22;551;48.524;9.056;2023-05-20T15:17:51;25.20;1.00
506;DHT22;551;48.524;9.056;2023-05-20T15:20:16;25.10;1.00
506;DHT22;551;48.524;9.056;2023-05-20T15:22:42;25.50;1.00
506;DHT22;551;48.524;9.056;2023-05-20T15:25:12;25.40;1.00
506;DHT22;551;48.524;9.056;2023-05-20T15:27:39;25.60;1.00
506;DHT22;551;48.524;9.056;2023-05-20T15:30:05;25.60;1.00
506;DHT22;551;48.524;9.056;2023-05-20T15:32:31;25.70;1.00
506;DHT22;551;48.524;9.056;2023-05-20T15:34:56;25.70;1.00
506;DHT22;551;48.524;9.056;2023-05-20T15:37:22;25.80;1.00
506;DHT22;551;48.524;9.056;2023-05-20T15:39:47;25.90;1.00
506;DHT22;551;48.524;9.056;2023-05-20T15:42:13;25.90;1.00
506;DHT22;551;48.524;9.056;2023-05-20T15:44:43;26.00;1.00
506;DHT22;551;48.524;9.056;2023-05-20T15:47:08;25.80;1.00
506;DHT22;551;48.524;9.056;2023-05-20T15:49:34;25.60;1.00
506;DHT22;551;48.524;9.056;2023-05-20T15:51:59;25.40;1.00
506;DHT22;551;48.524;9.056;2023-05-20T15:54:25;25.40;1.00
506;DHT22;551;48.524;9.056;2023-05-20T15:59:16;25.50;1.00
506;DHT22;551;48.524;9.056;2023-05-20T16:01:42;26.10;1.00
506;DHT22;551;48.524;9.056;2023-05-20T16:04:07;25.30;1.00
506;DHT22;551;48.524;9.056;2023-05-20T16:06:33;25.90;1.00
506;DHT22;551;48.524;9.056;2023-05-20T16:09:00;25.30;1.00
506;DHT22;551;48.524;9.056;2023-05-20T16:11:26;25.40;1.00
506;DHT22;551;48.524;9.056;2023-05-20T16:13:51;25.40;1.00
506;DHT22;551;48.524;9.056;2023-05-20T16:18:43;25.50;1.00
506;DHT22;551;48.524;9.056;2023-05-20T16:21:08;26.20;1.00
506;DHT22;551;48.524;9.056;2023-05-20T16:23:34;25.40;1.00
506;DHT22;551;48.524;9.056;2023-05-20T16:25:59;25.70;1.00
506;DHT22;551;48.524;9.056;2023-05-20T16:28:25;25.50;1.00
506;DHT22;551;48.524;9.056;2023-05-20T16:33:16;25.50;1.00
506;DHT22;551;48.524;9.056;2023-05-20T16:35:42;25.50;1.00
506;DHT22;551;48.524;9.056;2023-05-20T16:38:08;25.40;1.00
506;DHT22;551;48.524;9.056;2023-05-20T16:40:33;25.30;1.00
506;DHT22;551;48.524;9.056;2023-05-20T16:42:59;25.50;1.00
506;DHT22;551;48.524;9.056;2023-05-20T16:45:25;25.30;1.00
506;DHT22;551;48.524;9.056;2023-05-20T16:47:50;25.20;1.00
506;DHT22;551;48.524;9.056;2023-05-20T16:50:16;25.20;1.00
506;DHT22;551;48.524;9.056;2023-05-20T16:52:41;25.10;1.00
506;DHT22;551;48.524;9.056;2023-05-20T16:55:07;25.20;1.00
506;DHT22;551;48.524;9.056;2023-05-20T16:57:34;25.20;1.00
506;DHT22;551;48.524;9.056;2023-05-20T16:59:59;25.10;1.00
506;DHT22;551;48.524;9.056;2023-05-20T17:02:25;25.10;1.00
506;DHT22;551;48.524;9.056;2023-05-20T17:04:51;25.00;1.00
506;DHT22;551;48.524;9.056;2023-05-20T17:07:16;25.20;1.00
506;DHT22;551;48.524;9.056;2023-05-20T17:09:42;24.90;1.00
506;DHT22;551;48.524;9.056;2023-05-20T17:12:07;25.90;1.00
506;DHT22;551;48.524;9.056;2023-05-20T17:14:33;24.90;1.00
506;DHT22;551;48.524;9.056;2023-05-20T17:16:58;24.90;1.00
506;DHT22;551;48.524;9.056;2023-05-20T17:19:24;24.90;1.00
506;DHT22;551;48.524;9.056;2023-05-20T17:21:50;25.00;1.00